Time;durP1;ratioP1;P1;durP2;ratioP2;P2;SDS_P1;SDS_P2;PMS_P1;PMS_P2;Temp;Humidity;BMP_temperature;BMP_pressure;BME280_temperature;BME280_humidity;BME280_pressure;Samples;Min_cycle;Max_cycle;Signal;HPM_P1;HPM_P2
2022/09/01 00:01:20;;;;;;;0.90;0.80;;;;;;;;;;5027294;28;20465;-63
2022/09/01 00:03:51;;;;;;;0.60;0.60;;;;;;;;;;5031939;28;20434;-63
2022/09/01 00:06:22;;;;;;;0.70;0.70;;;;;;;;;;5031692;28;21012;-63
2022/09/01 00:08:49;;;;;;;0.80;0.80;;;;;;;;;;5030316;28;20861;-63
2022/09/01 00:11:17;;;;;;;0.63;0.63;;;;;;;;;;5030860;28;20466;-63
2022/09/01 00:13:53;;;;;;;1.15;0.77;;;;;;;;;;5025743;28;20514;-63
2022/09/01 00:16:22;;;;;;;0.98;0.70;;;;;;;;;;5012468;28;20432;-63
2022/09/01 00:18:51;;;;;;;0.45;0.45;;;;;;;;;;5028482;28;20430;-63
2022/09/01 00:21:20;;;;;;;0.60;0.60;;;;;;;;;;5032100;28;20466;-63
2022/09/01 00:23:51;;;;;;;0.68;0.68;;;;;;;;;;5020292;28;20455;-63
2022/09/01 00:26:18;;;;;;;0.80;0.80;;;;;;;;;;5012563;28;20435;-63
2022/09/01 00:28:45;;;;;;;0.70;0.70;;;;;;;;;;5023937;28;20458;-63
2022/09/01 00:31:14;;;;;;;0.70;0.70;;;;;;;;;;5029511;28;20466;-63
2022/09/01 00:33:41;;;;;;;0.60;0.60;;;15.00;99.90;;;;;;5021815;28;20422;-63
2022/09/01 00:36:10;;;;;;;0.63;0.63;;;14.60;99.90;;;;;;5026749;28;22514;-63
2022/09/01 00:38:37;;;;;;;0.77;0.77;;;14.60;99.90;;;;;;5030309;28;20508;-63
2022/09/01 00:41:06;;;;;;;0.80;0.80;;;14.50;99.90;;;;;;5028642;28;20522;-63
2022/09/01 00:43:40;;;;;;;0.50;0.50;;;14.40;99.90;;;;;;5028625;28;20447;-63
2022/09/01 00:46:11;;;;;;;0.77;0.55;;;14.30;99.90;;;;;;5028336;28;20431;-63
2022/09/01 00:48:38;;;;;;;0.60;0.60;;;14.30;99.90;;;;;;5030692;28;20433;-63
2022/09/01 00:51:09;;;;;;;0.60;0.60;;;14.20;99.90;;;;;;5028900;28;20434;-63
2022/09/01 00:53:42;;;;;;;0.75;0.75;;;14.30;99.90;;;;;;5030584;28;20514;-63
2022/09/01 00:56:09;;;;;;;0.50;0.50;;;14.30;99.90;;;;;;5028252;28;20474;-63
2022/09/01 00:58:37;;;;;;;0.70;0.70;;;14.30;99.90;;;;;;5025937;28;21027;-63
2022/09/01 01:01:11;;;;;;;0.70;0.70;;;14.30;99.90;;;;;;5029593;28;20439;-63
2022/09/01 01:03:41;;;;;;;0.70;0.70;;;14.30;99.90;;;;;;5029475;28;20440;-63
2022/09/01 01:06:08;;;;;;;0.60;0.60;;;14.40;99.90;;;;;;5026492;28;20805;-63
2022/09/01 01:08:43;;;;;;;0.50;0.50;;;14.40;99.90;;;;;;5016730;28;20542;-63
2022/09/01 01:11:16;;;;;;;0.60;0.60;;;14.40;99.90;;;;;;5027385;28;20458;-63
2022/09/01 01:13:56;;;;;;;0.57;0.57;;;14.30;99.90;;;;;;5029295;28;20427;-63
2022/09/01 01:16:27;;;;;;;0.82;0.82;;;14.20;99.90;;;;;;5030825;28;20423;-63
2022/09/01 01:18:54;;;;;;;0.40;0.40;;;14.10;99.90;;;;;;5021639;28;20479;-63
2022/09/01 01:24:26;;;;;;;0.50;0.50;;;14.00;99.90;;;;;;5026605;28;20518;-63
2022/09/01 01:26:58;;;;;;;0.60;0.60;;;13.90;99.90;;;;;;5014100;28;20430;-63
2022/09/01 01:29:34;;;;;;;0.47;0.47;;;13.90;99.90;;;;;;5028438;28;20512;-63
2022/09/01 01:32:04;;;;;;;0.60;0.60;;;13.90;99.90;;;;;;5027689;28;20935;-63
2022/09/01 01:34:31;;;;;;;1.00;1.00;;;13.80;99.90;;;;;;5023716;28;20431;-63
2022/09/01 01:37:00;;;;;;;0.60;0.60;;;13.80;99.90;;;;;;5030685;28;20442;-63
2022/09/01 01:39:27;;;;;;;0.47;0.47;;;13.70;99.90;;;;;;5020560;28;20470;-63
2022/09/01 01:41:56;;;;;;;0.60;0.60;;;13.70;99.90;;;;;;5028671;28;20509;-63
2022/09/01 01:44:27;;;;;;;0.68;0.68;;;13.70;99.90;;;;;;5029155;28;20441;-63
2022/09/01 01:46:56;;;;;;;0.47;0.47;;;13.70;99.90;;;;;;5026311;28;20451;-63
2022/09/01 01:49:27;;;;;;;0.60;0.60;;;13.70;99.90;;;;;;5029554;28;21094;-63
2022/09/01 01:51:57;;;;;;;0.63;0.63;;;13.70;99.90;;;;;;5024528;28;20466;-63
2022/09/01 01:54:34;;;;;;;0.60;0.60;;;13.60;99.90;;;;;;5028813;28;20518;-63
2022/09/01 01:57:03;;;;;;;0.40;0.40;;;13.50;99.90;;;;;;5027652;28;20509;-62
2022/09/01 01:59:32;;;;;;;0.65;0.65;;;13.40;99.90;;;;;;5018577;28;20530;-63
2022/09/01 02:02:08;;;;;;;0.50;0.50;;;;;;;;;;5028411;28;20510;-63
2022/09/01 02:04:35;;;;;;;0.47;0.47;;;13.30;99.90;;;;;;5024083;28;20432;-63
2022/09/01 02:07:02;;;;;;;0.60;0.60;;;13.20;99.90;;;;;;5023718;28;20431;-63
2022/09/01 02:09:28;;;;;;;0.70;0.70;;;13.20;99.90;;;;;;5026426;28;20913;-63
2022/09/01 02:11:57;;;;;;;0.60;0.60;;;13.20;99.90;;;;;;5029394;28;20889;-63
2022/09/01 02:14:26;;;;;;;0.60;0.60;;;13.10;99.90;;;;;;5025021;28;20433;-63
2022/09/01 02:16:54;;;;;;;0.65;0.60;;;13.10;99.90;;;;;;5015139;28;20439;-63
2022/09/01 02:19:21;;;;;;;0.50;0.50;;;13.10;99.90;;;;;;5019597;28;20519;-62
2022/09/01 02:21:53;;;;;;;0.87;0.87;;;13.10;99.90;;;;;;5026045;28;21008;-63
2022/09/01 02:24:20;;;;;;;0.60;0.60;;;13.10;99.90;;;;;;5016915;28;20992;-63
2022/09/01 02:26:50;;;;;;;0.50;0.50;;;13.00;99.90;;;;;;5024002;28;20523;-63
2022/09/01 02:29:20;;;;;;;1.10;0.80;;;13.00;99.90;;;;;;5015351;28;20431;-63
2022/09/01 02:31:50;;;;;;;0.43;0.43;;;13.00;99.90;;;;;;5021653;28;20427;-63
2022/09/01 02:34:19;;;;;;;0.40;0.40;;;13.10;99.90;;;;;;5023406;28;20432;-63
2022/09/01 02:36:50;;;;;;;0.68;0.68;;;13.10;99.90;;;;;;5025286;28;20445;-63
2022/09/01 02:39:21;;;;;;;1.70;0.60;;;13.10;99.90;;;;;;5017318;28;20528;-63
2022/09/01 02:41:49;;;;;;;0.50;0.50;;;13.10;99.90;;;;;;5019151;28;20786;-63
2022/09/01 02:44:17;;;;;;;0.55;0.55;;;13.20;99.90;;;;;;5023275;28;20466;-63
2022/09/01 02:46:49;;;;;;;0.80;0.60;;;13.20;99.90;;;;;;5023153;28;20436;-63
2022/09/01 02:49:24;;;;;;;0.30;0.30;;;13.30;99.90;;;;;;5028517;28;20477;-63
2022/09/01 02:51:56;;;;;;;0.70;0.70;;;13.20;99.90;;;;;;5023517;28;20530;-63
2022/09/01 02:54:24;;;;;;;0.70;0.70;;;13.30;99.90;;;;;;5022035;28;20511;-62
2022/09/01 02:56:53;;;;;;;0.63;0.63;;;13.20;99.90;;;;;;5021837;28;20463;-63
2022/09/01 02:59:23;;;;;;;0.57;0.57;;;13.20;99.90;;;;;;5027715;28;20426;-63
2022/09/01 03:01:52;;;;;;;0.50;0.50;;;13.10;99.90;;;;;;5031346;28;20933;-63
2022/09/01 03:04:21;;;;;;;0.70;0.70;;;13.10;99.90;;;;;;5009615;28;20491;-63
2022/09/01 03:06:49;;;;;;;0.90;0.50;;;13.10;99.90;;;;;;5033119;28;20435;-63
2022/09/01 03:09:17;;;;;;;1.00;0.90;;;13.10;99.90;;;;;;5027331;28;20436;-63
2022/09/01 03:11:49;;;;;;;0.65;0.65;;;13.10;99.90;;;;;;5031850;28;20517;-63
2022/09/01 03:14:16;;;;;;;0.55;0.55;;;13.10;99.90;;;;;;5023415;28;20438;-63
2022/09/01 03:16:44;;;;;;;0.80;0.80;;;13.10;99.90;;;;;;5026802;28;20492;-63
2022/09/01 03:19:11;;;;;;;0.55;0.55;;;13.20;99.90;;;;;;5029726;28;20496;-63
2022/09/01 03:21:41;;;;;;;0.60;0.50;;;13.10;99.90;;;;;;5022747;28;20462;-62
2022/09/01 03:24:14;;;;;;;0.70;0.70;;;13.10;99.90;;;;;;5024031;28;20435;-63
2022/09/01 03:26:49;;;;;;;0.55;0.55;;;13.10;99.90;;;;;;5030114;28;20785;-62
2022/09/01 03:29:17;;;;;;;0.68;0.68;;;13.00;99.90;;;;;;5024736;28;20927;-63
2022/09/01 03:31:44;;;;;;;0.63;0.63;;;12.90;99.90;;;;;;5031060;28;20529;-63
2022/09/01 03:34:11;;;;;;;1.02;0.70;;;12.90;99.90;;;;;;5030273;28;20976;-63
2022/09/01 03:36:38;;;;;;;1.08;0.60;;;12.90;99.90;;;;;;5019412;28;20967;-63
2022/09/01 03:39:08;;;;;;;1.17;0.80;;;12.90;99.90;;;;;;5029299;28;20996;-63
2022/09/01 03:41:42;;;;;;;0.50;0.50;;;12.80;99.90;;;;;;5017808;28;20434;-63
2022/09/01 03:44:12;;;;;;;0.70;0.70;;;12.80;99.90;;;;;;5028226;28;20507;-63
2022/09/01 03:46:39;;;;;;;0.70;0.70;;;12.80;99.90;;;;;;5029763;28;20556;-63
2022/09/01 03:49:11;;;;;;;0.63;0.63;;;12.80;99.90;;;;;;5030900;28;20445;-63
2022/09/01 03:51:39;;;;;;;0.60;0.60;;;12.70;99.90;;;;;;5027007;28;20434;-62
2022/09/01 03:54:06;;;;;;;0.60;0.60;;;12.70;99.90;;;;;;5023503;28;20455;-63
2022/09/01 03:56:33;;;;;;;0.50;0.50;;;12.60;99.90;;;;;;5012731;28;20514;-63
2022/09/01 03:58:59;;;;;;;0.70;0.70;;;12.50;99.90;;;;;;5020592;28;20430;-63
2022/09/01 04:01:31;;;;;;;1.10;0.80;;;12.50;99.90;;;;;;5027472;28;20782;-63
2022/09/01 04:04:01;;;;;;;0.80;0.80;;;12.50;99.90;;;;;;5022858;28;20435;-63
2022/09/01 04:06:29;;;;;;;0.75;0.75;;;12.50;99.90;;;;;;5029180;28;20454;-63
2022/09/01 04:09:01;;;;;;;0.90;0.60;;;12.50;99.90;;;;;;5026764;28;20436;-63
2022/09/01 04:11:30;;;;;;;0.90;0.90;;;12.50;99.90;;;;;;5026362;28;20500;-63
2022/09/01 04:13:58;;;;;;;0.50;0.50;;;12.50;99.90;;;;;;5022512;28;20437;-63
2022/09/01 04:19:25;;;;;;;0.70;0.70;;;12.50;99.90;;;;;;5021701;28;20455;-63
2022/09/01 04:21:55;;;;;;;0.63;0.63;;;12.60;99.90;;;;;;5026887;28;20440;-63
2022/09/01 04:24:26;;;;;;;0.77;0.77;;;12.60;99.90;;;;;;5027470;28;20470;-63
2022/09/01 04:26:57;;;;;;;0.82;0.82;;;12.70;99.90;;;;;;5024397;28;20491;-63
2022/09/01 04:29:28;;;;;;;0.60;0.60;;;12.70;99.90;;;;;;5027526;28;20426;-63
2022/09/01 04:32:06;;;;;;;0.57;0.57;;;12.80;99.90;;;;;;5027194;28;20513;-63
2022/09/01 04:34:40;;;;;;;1.20;0.80;;;12.90;99.90;;;;;;5021933;28;22747;-63
2022/09/01 04:37:17;;;;;;;0.70;0.70;;;13.10;99.90;;;;;;5017459;28;20825;-63
2022/09/01 04:39:55;;;;;;;1.10;0.65;;;13.30;99.90;;;;;;5023294;28;20877;-63
2022/09/01 04:42:27;;;;;;;0.65;0.65;;;13.40;99.90;;;;;;5021541;28;20440;-63
2022/09/01 04:44:59;;;;;;;0.70;0.70;;;13.50;99.90;;;;;;5025478;28;20468;-63
2022/09/01 04:47:40;;;;;;;0.60;0.60;;;13.60;99.90;;;;;;5029737;28;20439;-63
2022/09/01 04:50:12;;;;;;;0.50;0.50;;;13.70;99.90;;;;;;5028389;28;20430;-63
2022/09/01 04:52:41;;;;;;;0.60;0.60;;;13.70;99.90;;;;;;5022116;28;20430;-63
2022/09/01 04:55:17;;;;;;;0.57;0.57;;;13.80;99.90;;;;;;5020969;28;20979;-63
2022/09/01 04:57:46;;;;;;;1.00;1.00;;;13.80;99.90;;;;;;4879807;28;4215814;-63
2022/09/01 05:00:21;;;;;;;0.60;0.60;;;13.90;99.90;;;;;;5027707;28;20782;-63
2022/09/01 05:03:03;;;;;;;0.52;0.52;;;13.90;99.90;;;;;;5026591;28;20802;-64
2022/09/01 05:05:43;;;;;;;0.60;0.60;;;13.90;99.90;;;;;;5028411;28;20431;-63
2022/09/01 05:08:15;;;;;;;0.88;0.88;;;14.00;99.90;;;;;;5026795;28;20545;-63
2022/09/01 05:10:54;;;;;;;0.80;0.80;;;14.00;99.90;;;;;;5028945;28;20422;-64
2022/09/01 05:13:22;;;;;;;0.77;0.77;;;14.10;99.90;;;;;;5027022;28;20435;-63
2022/09/01 05:16:00;;;;;;;0.45;0.45;;;14.10;99.90;;;;;;5027486;28;20492;-63
2022/09/01 05:18:30;;;;;;;0.88;0.73;;;14.20;99.90;;;;;;5031144;28;20434;-63
2022/09/01 05:20:57;;;;;;;0.60;0.60;;;14.30;99.90;;;;;;5024581;28;20433;-63
2022/09/01 05:23:25;;;;;;;0.70;0.70;;;14.40;99.90;;;;;;5026612;28;20493;-63
2022/09/01 05:25:53;;;;;;;0.60;0.60;;;14.50;99.90;;;;;;5027251;28;20435;-63
2022/09/01 05:28:24;;;;;;;0.90;0.90;;;14.60;99.90;;;;;;5027495;28;20507;-63
2022/09/01 05:30:53;;;;;;;0.60;0.60;;;14.70;99.90;;;;;;5027724;28;20932;-63
2022/09/01 05:33:23;;;;;;;0.50;0.50;;;14.70;99.90;;;;;;5025559;28;20431;-63
2022/09/01 05:36:00;;;;;;;0.60;0.60;;;14.70;99.90;;;;;;5021365;28;20426;-64
2022/09/01 05:38:29;;;;;;;0.50;0.50;;;14.80;99.90;;;;;;5020562;28;20476;-63
2022/09/01 05:41:07;;;;;;;0.70;0.70;;;14.90;99.90;;;;;;5020736;28;20587;-63
2022/09/01 05:43:34;;;;;;;0.90;0.90;;;15.00;99.90;;;;;;5020042;28;20434;-63
2022/09/01 05:46:07;;;;;;;0.60;0.60;;;15.10;99.90;;;;;;5027710;28;20438;-64
2022/09/01 05:48:38;;;;;;;0.60;0.60;;;15.20;99.90;;;;;;5025762;28;20519;-63
2022/09/01 05:51:09;;;;;;;0.50;0.50;;;15.30;99.90;;;;;;5023477;28;20432;-63
2022/09/01 05:53:57;;;;;;;0.70;0.70;;;15.40;99.90;;;;;;5027967;28;20489;-63
2022/09/01 05:56:31;;;;;;;0.50;0.50;;;15.40;99.90;;;;;;5023587;28;20498;-63
2022/09/01 05:59:01;;;;;;;0.55;0.55;;;15.40;99.90;;;;;;5020371;28;20441;-63
2022/09/01 06:01:48;;;;;;;0.47;0.47;;;15.50;99.90;;;;;;5025801;28;20433;-63
2022/09/01 06:04:16;;;;;;;0.70;0.70;;;15.70;99.90;;;;;;5027594;28;20466;-63
2022/09/01 06:06:48;;;;;;;0.70;0.70;;;15.80;99.90;;;;;;5025155;28;20445;-63
2022/09/01 06:09:37;;;;;;;0.50;0.50;;;15.90;99.90;;;;;;5028310;28;20465;-64
2022/09/01 06:12:16;;;;;;;0.70;0.60;;;16.10;99.90;;;;;;5024781;28;20507;-63
2022/09/01 06:14:44;;;;;;;0.60;0.60;;;16.20;99.90;;;;;;5026634;28;20435;-63
2022/09/01 06:17:11;;;;;;;0.60;0.60;;;16.20;99.90;;;;;;5026338;28;20428;-63
2022/09/01 06:19:41;;;;;;;0.60;0.60;;;16.40;99.90;;;;;;5019048;28;20464;-64
2022/09/01 06:22:09;;;;;;;0.68;0.68;;;16.50;99.90;;;;;;5027145;28;20437;-64
2022/09/01 06:24:38;;;;;;;0.50;0.50;;;16.70;99.90;;;;;;5027488;28;20447;-63
2022/09/01 06:27:11;;;;;;;0.90;0.63;;;16.70;99.90;;;;;;5027831;28;20485;-63
2022/09/01 06:29:41;;;;;;;0.50;0.50;;;16.70;99.90;;;;;;5024204;28;20506;-62
2022/09/01 06:32:09;;;;;;;0.70;0.70;;;16.80;99.90;;;;;;5030508;28;20431;-62
2022/09/01 06:34:41;;;;;;;0.73;0.73;;;16.80;99.90;;;;;;5025131;28;20450;-63
2022/09/01 06:37:08;;;;;;;0.70;0.70;;;17.00;99.90;;;;;;5025633;28;20519;-63
2022/09/01 06:39:35;;;;;;;0.40;0.40;;;17.10;99.90;;;;;;5028287;28;20457;-62
2022/09/01 06:42:05;;;;;;;0.70;0.70;;;17.20;99.90;;;;;;5027092;28;20526;-63
2022/09/01 06:44:32;;;;;;;0.40;0.40;;;17.30;99.90;;;;;;5023951;28;20494;-63
2022/09/01 06:47:00;;;;;;;0.40;0.40;;;17.20;99.90;;;;;;5016738;28;20516;-63
2022/09/01 06:49:33;;;;;;;0.47;0.47;;;17.40;99.90;;;;;;5025846;28;20513;-62
2022/09/01 06:52:04;;;;;;;0.50;0.50;;;17.50;99.90;;;;;;5024782;28;20433;-63
2022/09/01 06:54:33;;;;;;;0.50;0.50;;;17.70;99.90;;;;;;5017744;28;20457;-62
2022/09/01 06:57:03;;;;;;;0.40;0.40;;;17.90;99.90;;;;;;5023425;28;20426;-62
2022/09/01 06:59:52;;;;;;;0.50;0.50;;;18.10;99.90;;;;;;5026744;28;20429;-63
2022/09/01 07:02:20;;;;;;;0.52;0.52;;;18.30;99.90;;;;;;5027285;28;20426;-63
2022/09/01 07:04:52;;;;;;;0.40;0.40;;;18.70;99.90;;;;;;5020442;28;20468;-63
2022/09/01 07:07:20;;;;;;;0.40;0.40;;;19.20;99.90;;;;;;5011839;28;20491;-63
2022/09/01 07:10:13;;;;;;;0.57;0.57;;;19.90;99.90;;;;;;5029453;28;20580;-63
2022/09/01 07:12:50;;;;;;;0.50;0.50;;;20.20;99.90;;;;;;5022805;28;20431;-62
2022/09/01 07:15:38;;;;;;;0.50;0.50;;;20.60;99.90;;;;;;5028298;28;20434;-63
2022/09/01 07:18:26;;;;;;;0.40;0.40;;;20.10;99.90;;;;;;5024932;28;21011;-63
2022/09/01 07:20:53;;;;;;;0.70;0.70;;;20.10;99.90;;;;;;5027977;28;21005;-63
2022/09/01 07:23:42;;;;;;;0.60;0.60;;;20.30;99.90;;;;;;5025457;28;20419;-64
2022/09/01 07:26:34;;;;;;;0.47;0.47;;;;;;;;;;5018433;28;20511;-64
2022/09/01 07:29:02;;;;;;;0.50;0.50;;;;;;;;;;5015888;28;20441;-63
2022/09/01 07:31:33;;;;;;;0.40;0.40;;;;;;;;;;5026915;28;20431;-63
2022/09/01 07:34:21;;;;;;;0.43;0.43;;;;;;;;;;5023676;28;20933;-63
2022/09/01 07:37:05;;;;;;;0.60;0.60;;;;;;;;;;5047335;28;20422;-64
2022/09/01 07:39:52;;;;;;;0.50;0.50;;;;;;;;;;5027303;28;20435;-63
2022/09/01 07:42:21;;;;;;;0.50;0.50;;;;;;;;;;5023800;28;20462;-63
2022/09/01 07:45:10;;;;;;;0.40;0.40;;;;;;;;;;5013593;28;20421;-63
2022/09/01 07:47:56;;;;;;;0.50;0.50;;;;;;;;;;5026362;28;20821;-63
2022/09/01 07:50:25;;;;;;;0.40;0.40;;;;;;;;;;5026336;28;20433;-65
2022/09/01 07:53:17;;;;;;;0.70;0.70;;;;;;;;;;5030478;28;20430;-63
2022/09/01 07:55:49;;;;;;;0.50;0.40;;;;;;;;;;5031615;28;20418;-63
2022/09/01 07:58:18;;;;;;;0.50;0.50;;;;;;;;;;5027693;28;21170;-63
2022/09/01 08:00:46;;;;;;;0.43;0.43;;;;;;;;;;5018692;28;20428;-64
2022/09/01 08:03:14;;;;;;;0.50;0.50;;;;;;;;;;5029371;28;20537;-63
2022/09/01 08:05:42;;;;;;;0.40;0.40;;;;;;;;;;5023378;28;20426;-64
2022/09/01 08:08:09;;;;;;;0.40;0.40;;;;;;;;;;5026722;28;20441;-63
2022/09/01 08:10:50;;;;;;;0.40;0.40;;;;;;;;;;5022657;28;20562;-63
2022/09/01 08:13:18;;;;;;;0.63;0.63;;;;;;;;;;5026616;28;20437;-63
2022/09/01 08:15:48;;;;;;;0.52;0.52;;;;;;;;;;5023625;28;20462;-63
2022/09/01 08:18:35;;;;;;;0.50;0.50;;;;;;;;;;5020366;28;20423;-62
2022/09/01 08:21:20;;;;;;;0.50;0.50;;;;;;;;;;5023829;28;20984;-63
2022/09/01 08:23:48;;;;;;;0.32;0.32;;;;;;;;;;5024009;28;20438;-63
2022/09/01 08:26:16;;;;;;;0.43;0.43;;;;;;;;;;5025110;28;20437;-63
2022/09/01 08:28:43;;;;;;;0.50;0.50;;;;;;;;;;5024156;28;20446;-63
2022/09/01 08:31:14;;;;;;;0.40;0.40;;;;;;;;;;5023928;28;21174;-63
2022/09/01 08:33:42;;;;;;;0.40;0.40;;;;;;;;;;5027860;28;20423;-62
2022/09/01 08:36:11;;;;;;;0.50;0.50;;;;;;;;;;5024233;28;20432;-63
2022/09/01 08:38:38;;;;;;;1.10;0.55;;;;;;;;;;5025562;28;20443;-63
2022/09/01 08:41:12;;;;;;;0.40;0.40;;;;;;;;;;5025852;28;20451;-63
2022/09/01 08:43:59;;;;;;;0.60;0.60;;;;;;;;;;5020742;28;20435;-63
2022/09/01 08:46:29;;;;;;;0.60;0.60;;;;;;;;;;5023466;28;20849;-62
2022/09/01 08:48:59;;;;;;;0.60;0.60;;;;;;;;;;5024823;28;20961;-63
2022/09/01 08:51:58;;;;;;;0.47;0.45;;;;;;;;;;5023140;28;20423;-62
2022/09/01 08:54:54;;;;;;;0.50;0.50;;;;;;;;;;5030873;28;20427;-63
2022/09/01 08:57:23;;;;;;;0.47;0.47;;;;;;;;;;5028151;28;20446;-63
2022/09/01 08:59:52;;;;;;;0.70;0.70;;;;;;;;;;5030976;28;20470;-64
2022/09/01 09:02:26;;;;;;;0.90;0.50;;;;;;;;;;5024027;28;20453;-63
2022/09/01 09:05:03;;;;;;;0.50;0.50;;;;;;;;;;5006695;28;20431;-63
2022/09/01 09:07:50;;;;;;;0.50;0.50;;;;;;;;;;5026398;28;20438;-63
2022/09/01 09:10:18;;;;;;;0.50;0.50;;;;;;;;;;5021934;28;20515;-63
2022/09/01 09:13:04;;;;;;;0.50;0.50;;;;;;;;;;5029072;28;20464;-62
2022/09/01 09:15:36;;;;;;;0.50;0.50;;;;;;;;;;5015481;28;20494;-62
2022/09/01 09:18:15;;;;;;;0.57;0.57;;;;;;;;;;5023337;28;20433;-63
2022/09/01 09:21:25;;;;;;;0.60;0.60;;;;;;;;;;5016168;28;20513;-62
2022/09/01 09:23:58;;;;;;;0.52;0.52;;;;;;;;;;5020126;28;20963;-62
2022/09/01 09:26:26;;;;;;;0.50;0.50;;;;;;;;;;5022050;28;20532;-62
2022/09/01 09:29:07;;;;;;;0.70;0.70;;;22.60;99.90;;;;;;5019594;28;20491;-62
2022/09/01 09:31:47;;;;;;;0.90;0.60;;;24.90;99.90;;;;;;5029082;28;20414;-63
2022/09/01 09:34:31;;;;;;;0.50;0.50;;;;;;;;;;5024122;28;20852;-63
2022/09/01 09:37:20;;;;;;;0.43;0.43;;;25.60;99.90;;;;;;5023315;28;20443;-62
2022/09/01 09:40:03;;;;;;;0.45;0.45;;;27.20;97.40;;;;;;5021627;28;20452;-63
2022/09/01 09:42:30;;;;;;;0.90;0.50;;;26.40;97.10;;;;;;5017204;28;20443;-64
2022/09/01 09:45:03;;;;;;;0.50;0.50;;;26.30;97.50;;;;;;5027017;28;20434;-64
2022/09/01 09:47:42;;;;;;;0.40;0.40;;;26.60;97.00;;;;;;5029965;28;20445;-64
2022/09/01 09:50:17;;;;;;;0.68;0.68;;;26.00;98.30;;;;;;5019817;28;20775;-65
2022/09/01 09:52:47;;;;;;;0.40;0.40;;;26.70;97.50;;;;;;5019592;28;21155;-63
2022/09/01 09:55:27;;;;;;;0.43;0.43;;;27.10;96.70;;;;;;5029588;28;20797;-63
2022/09/01 09:58:00;;;;;;;0.50;0.50;;;27.30;96.30;;;;;;5029749;28;20437;-63
2022/09/01 10:00:31;;;;;;;0.70;0.70;;;26.20;96.70;;;;;;5026685;28;20444;-64
2022/09/01 10:03:05;;;;;;;0.52;0.52;;;26.00;97.60;;;;;;5028901;28;20633;-64
2022/09/01 10:05:52;;;;;;;0.50;0.50;;;26.20;96.80;;;;;;5015898;28;20437;-62
2022/09/01 10:08:33;;;;;;;0.50;0.50;;;25.50;96.80;;;;;;5029529;28;20435;-63
2022/09/01 10:11:00;;;;;;;0.60;0.60;;;26.30;96.80;;;;;;5024643;28;20488;-63
2022/09/01 10:13:30;;;;;;;0.63;0.63;;;25.90;97.00;;;;;;5028935;28;20458;-63
2022/09/01 10:16:06;;;;;;;0.67;0.67;;;24.70;97.50;;;;;;5023415;28;20485;-62
2022/09/01 10:18:39;;;;;;;0.70;0.70;;;24.80;98.00;;;;;;5015477;28;20933;-63
2022/09/01 10:21:14;;;;;;;0.63;0.63;;;24.60;98.30;;;;;;5023464;28;20956;-63
2022/09/01 10:23:42;;;;;;;0.60;0.60;;;25.10;97.60;;;;;;5018323;28;20844;-63
2022/09/01 10:26:16;;;;;;;0.60;0.60;;;24.60;97.90;;;;;;5025180;28;20987;-63
2022/09/01 10:29:20;;;;;;;0.60;0.60;;;24.60;98.00;;;;;;5026136;28;20481;-63
2022/09/01 10:31:47;;;;;;;0.40;0.40;;;25.10;97.50;;;;;;5025220;28;20433;-63
2022/09/01 10:34:18;;;;;;;0.52;0.52;;;25.20;97.10;;;;;;5027921;28;20426;-62
2022/09/01 10:36:47;;;;;;;0.70;0.70;;;24.70;98.10;;;;;;5022456;28;20435;-62
2022/09/01 10:39:21;;;;;;;0.60;0.60;;;24.20;97.60;;;;;;5021941;28;21090;-62
2022/09/01 10:42:06;;;;;;;0.90;0.70;;;24.30;98.10;;;;;;5029050;28;20450;-62
2022/09/01 10:44:53;;;;;;;0.50;0.50;;;25.10;97.80;;;;;;5026189;28;20433;-63
2022/09/01 10:47:28;;;;;;;0.60;0.60;;;25.80;97.80;;;;;;5028299;28;20430;-62
2022/09/01 10:50:00;;;;;;;0.60;0.60;;;25.70;96.80;;;;;;5025524;28;20923;-62
2022/09/01 10:52:41;;;;;;;0.60;0.60;;;26.50;96.70;;;;;;5022103;28;21091;-63
2022/09/01 10:55:17;;;;;;;0.50;0.50;;;26.30;95.00;;;;;;5028073;28;20437;-63
2022/09/01 10:58:12;;;;;;;0.50;0.50;;;26.30;95.50;;;;;;5025969;28;20519;-62
2022/09/01 11:01:00;;;;;;;0.52;0.52;;;26.20;95.50;;;;;;5023993;28;20422;-62
2022/09/01 11:03:56;;;;;;;0.60;0.60;;;26.80;96.00;;;;;;5023478;28;20439;-64
2022/09/01 11:06:41;;;;;;;0.50;0.50;;;26.60;95.50;;;;;;5022803;28;20469;-63
2022/09/01 11:09:41;;;;;;;0.43;0.43;;;26.70;95.40;;;;;;5026099;28;20427;-62
2022/09/01 11:12:09;;;;;;;0.50;0.50;;;26.80;95.40;;;;;;5017601;28;20435;-63
2022/09/01 11:14:52;;;;;;;0.50;0.50;;;27.10;95.10;;;;;;5026942;28;20441;-62
2022/09/01 11:17:26;;;;;;;0.50;0.50;;;27.30;94.60;;;;;;5026333;28;20778;-63
2022/09/01 11:20:03;;;;;;;0.50;0.50;;;27.40;94.60;;;;;;5027342;28;20430;-63
2022/09/01 11:22:34;;;;;;;0.50;0.50;;;27.50;94.40;;;;;;5028485;28;20430;-64
2022/09/01 11:25:32;;;;;;;0.85;0.50;;;27.60;94.30;;;;;;5015967;28;20436;-64
2022/09/01 11:28:15;;;;;;;0.70;0.70;;;27.20;94.40;;;;;;5031226;28;20452;-63
2022/09/01 11:30:54;;;;;;;0.50;0.50;;;27.40;93.60;;;;;;5027851;28;20423;-64
2022/09/01 11:33:42;;;;;;;1.05;0.68;;;26.90;93.70;;;;;;5031933;28;20481;-63
2022/09/01 11:36:14;;;;;;;0.57;0.57;;;26.40;94.20;;;;;;5020177;28;20850;-62
2022/09/01 11:39:17;;;;;;;0.70;0.70;;;26.00;94.50;;;;;;5013192;28;20432;-62
2022/09/01 11:41:46;;;;;;;0.50;0.50;;;26.40;94.40;;;;;;5019231;28;20436;-61
2022/09/01 11:44:46;;;;;;;0.55;0.55;;;27.00;94.00;;;;;;5022145;28;20432;-64
2022/09/01 11:47:35;;;;;;;0.55;0.55;;;26.80;93.20;;;;;;5021454;28;20581;-62
2022/09/01 11:50:19;;;;;;;0.40;0.40;;;26.10;93.40;;;;;;5030763;28;20430;-62
2022/09/01 11:53:02;;;;;;;0.70;0.70;;;25.70;93.90;;;;;;5020331;28;20427;-63
2022/09/01 11:55:33;;;;;;;0.50;0.50;;;24.90;94.50;;;;;;5030776;28;20514;-62
2022/09/01 11:58:03;;;;;;;0.73;0.73;;;24.70;94.60;;;;;;5027712;28;20481;-64
2022/09/01 12:00:37;;;;;;;1.10;0.52;;;25.00;94.70;;;;;;5025768;28;20439;-63
2022/09/01 12:03:27;;;;;;;0.60;0.60;;;26.10;94.20;;;;;;5029016;28;21103;-63
2022/09/01 12:06:00;;;;;;;0.60;0.60;;;27.30;93.60;;;;;;5017653;28;20440;-63
2022/09/01 12:08:31;;;;;;;0.40;0.40;;;27.40;91.80;;;;;;5026355;28;20442;-63
2022/09/01 12:11:11;;;;;;;0.40;0.40;;;27.30;92.20;;;;;;5019602;28;20467;-63
2022/09/01 12:13:40;;;;;;;0.40;0.40;;;27.70;92.50;;;;;;5029851;28;20506;-63
2022/09/01 12:16:19;;;;;;;0.52;0.52;;;28.30;91.80;;;;;;5029808;28;21017;-64
2022/09/01 12:18:51;;;;;;;0.80;0.60;;;28.80;91.10;;;;;;5025192;28;20992;-63
2022/09/01 12:21:35;;;;;;;0.43;0.43;;;28.90;90.70;;;;;;5026525;28;20430;-62
2022/09/01 12:24:17;;;;;;;0.63;0.63;;;29.00;90.60;;;;;;5025941;28;20437;-63
2022/09/01 12:26:45;;;;;;;0.50;0.50;;;28.80;90.80;;;;;;5026244;28;20461;-63
2022/09/01 12:29:13;;;;;;;0.40;0.40;;;29.10;90.60;;;;;;5028775;28;20901;-63
2022/09/01 12:31:43;;;;;;;0.40;0.40;;;28.60;90.00;;;;;;5021349;28;20427;-63
2022/09/01 12:34:31;;;;;;;0.50;0.50;;;28.80;89.70;;;;;;5022687;28;20523;-63
2022/09/01 12:37:11;;;;;;;0.50;0.50;;;27.70;90.70;;;;;;5019581;28;20799;-62
2022/09/01 12:39:39;;;;;;;0.50;0.50;;;27.10;91.30;;;;;;5027541;28;20431;-62
2022/09/01 12:42:18;;;;;;;0.57;0.57;;;26.70;91.40;;;;;;5031242;28;20437;-62
2022/09/01 12:44:47;;;;;;;0.50;0.50;;;26.60;91.60;;;;;;5015939;28;20443;-63
2022/09/01 12:47:37;;;;;;;0.50;0.50;;;26.80;91.80;;;;;;5023274;28;21110;-62
2022/09/01 12:50:09;;;;;;;0.60;0.60;;;26.00;92.10;;;;;;5013671;28;20519;-62
2022/09/01 12:52:43;;;;;;;0.55;0.50;;;25.70;91.90;;;;;;5020592;28;20458;-62
2022/09/01 12:55:18;;;;;;;0.47;0.47;;;26.00;91.00;;;;;;5030113;28;20445;-62
2022/09/01 12:58:07;;;;;;;0.50;0.50;;;26.30;91.40;;;;;;5022510;28;20423;-63
2022/09/01 13:00:54;;;;;;;0.40;0.40;;;26.10;91.40;;;;;;5028151;28;20809;-63
2022/09/01 13:03:26;;;;;;;0.50;0.50;;;25.50;91.60;;;;;;5028238;28;20426;-62
2022/09/01 13:05:54;;;;;;;0.55;0.55;;;26.00;92.00;;;;;;5025137;28;20441;-62
2022/09/01 13:08:27;;;;;;;0.40;0.40;;;27.30;91.20;;;;;;5024035;28;20441;-62
2022/09/01 13:11:04;;;;;;;0.57;0.57;;;28.40;90.00;;;;;;5027177;28;20462;-64
2022/09/01 13:13:31;;;;;;;0.50;0.50;;;29.30;89.50;;;;;;5018586;28;20491;-63
2022/09/01 13:16:01;;;;;;;0.80;0.80;;;29.20;88.50;;;;;;5024396;28;20432;-63
2022/09/01 13:18:28;;;;;;;0.50;0.50;;;28.90;88.90;;;;;;5020075;28;20437;-63
2022/09/01 13:20:56;;;;;;;0.50;0.50;;;29.10;89.00;;;;;;5025269;28;20427;-62
2022/09/01 13:23:23;;;;;;;0.40;0.40;;;29.30;86.10;;;;;;5011969;28;21090;-63
2022/09/01 13:25:53;;;;;;;0.60;0.60;;;28.40;86.70;;;;;;5019610;28;20809;-62
2022/09/01 13:28:23;;;;;;;0.43;0.43;;;28.30;87.90;;;;;;5012417;28;21020;-62
2022/09/01 13:30:56;;;;;;;0.50;0.50;;;28.90;86.70;;;;;;5027305;28;20525;-64
2022/09/01 13:33:42;;;;;;;0.50;0.50;;;29.50;87.00;;;;;;5027208;28;20415;-62
2022/09/01 13:36:29;;;;;;;0.50;0.50;;;29.80;85.80;;;;;;5021118;28;20448;-64
2022/09/01 13:39:16;;;;;;;0.60;0.60;;;30.50;83.20;;;;;;5027205;28;20427;-63
2022/09/01 13:41:45;;;;;;;0.50;0.50;;;30.90;83.50;;;;;;5015224;28;20505;-63
2022/09/01 13:44:15;;;;;;;0.60;0.60;;;30.60;82.90;;;;;;5020471;28;20430;-63
2022/09/01 13:46:44;;;;;;;0.68;0.50;;;31.10;83.70;;;;;;5016532;28;20459;-63
2022/09/01 13:49:31;;;;;;;0.70;0.70;;;31.50;84.10;;;;;;5021499;28;20756;-62